createdAt,value
2018-10-03T00:18:02.923Z,6.70
2018-10-03T00:38:39.420Z,7.03
2018-10-03T00:59:15.317Z,6.10
2018-10-03T01:40:42.140Z,6.40
2018-10-03T02:01:30.314Z,5.60
2018-10-03T02:22:09.581Z,4.70
2018-10-03T02:42:46.999Z,3.70
2018-10-03T03:03:26.543Z,4.10
2018-10-03T03:24:05.528Z,3.87
2018-10-03T03:44:40.804Z,5.50
2018-10-03T04:05:23.138Z,4.93
2018-10-03T04:26:01.183Z,3.30
2018-10-03T04:46:46.591Z,1.90
2018-10-03T05:07:28.008Z,2.13
2018-10-03T05:28:09.114Z,2.00
2018-10-03T05:48:49.684Z,1.77
2018-10-03T06:09:25.803Z,2.57
2018-10-03T06:30:05.990Z,2.90
2018-10-03T06:50:46.766Z,2.30
2018-10-03T07:11:25.451Z,3.47
2018-10-03T07:32:09.929Z,2.70
2018-10-03T08:10:50.870Z,4.47
2018-10-03T08:31:30.135Z,3.97
2018-10-03T08:52:08.180Z,3.20
2018-10-03T09:12:51.084Z,3.50
2018-10-03T09:33:28.857Z,3.23
2018-10-03T09:54:10.275Z,3.10
2018-10-03T10:14:45.547Z,4.13
2018-10-03T10:35:22.662Z,4.13
2018-10-03T10:56:01.005Z,3.80
2018-10-03T11:16:43.594Z,3.47
2018-10-03T11:37:26.605Z,3.70
2018-10-03T11:58:06.793Z,3.20
2018-10-03T12:18:43.293Z,3.37
2018-10-03T12:39:20.407Z,3.40
2018-10-03T12:59:59.677Z,2.90
2018-10-03T13:20:41.236Z,2.67
2018-10-03T13:41:24.411Z,2.90
2018-10-03T14:02:07.611Z,2.97
2018-10-03T14:22:49.946Z,3.27
2018-10-03T14:43:34.483Z,2.77
2018-10-03T15:04:17.696Z,3.07
2018-10-03T15:24:54.812Z,2.80
2018-10-03T15:45:37.150Z,2.53
2018-10-03T16:06:20.408Z,3.23
2018-10-03T16:27:00.598Z,2.70
2018-10-03T16:47:36.792Z,2.00
2018-10-03T17:08:19.482Z,3.10
2018-10-03T17:29:00.545Z,3.23
2018-10-03T17:49:41.046Z,3.20
2018-10-03T18:10:22.350Z,3.17
2018-10-03T18:30:58.347Z,4.00
2018-10-03T18:51:37.611Z,3.60
2018-10-03T19:12:14.836Z,3.63
2018-10-03T19:32:53.072Z,3.70
2018-10-03T19:53:45.549Z,3.80
2018-10-03T20:14:30.081Z,3.63
2018-10-03T20:35:08.075Z,3.97
2018-10-03T20:55:49.186Z,3.70
2018-10-03T21:16:25.681Z,4.17
2018-10-03T21:37:08.171Z,4.90
2018-10-03T21:57:45.137Z,4.80
2018-10-03T22:18:25.864Z,3.80
2018-10-03T22:39:13.052Z,3.60
2018-10-03T22:59:53.075Z,3.70
2018-10-03T23:20:34.490Z,3.50
2018-10-03T23:41:11.611Z,3.80
